Time;durP1;ratioP1;P1;durP2;ratioP2;P2;SDS_P1;SDS_P2;PMS_P1;PMS_P2;Temp;Humidity;BMP_temperature;BMP_pressure;BME280_temperature;BME280_humidity;BME280_pressure;Samples;Min_cycle;Max_cycle;Signal;HPM_P1;HPM_P2
2022/02/04 00:05:24;;;;;;;0.43;0.43;;;19.50;99.90;;;;;;5051953;28;20048;-62
2022/02/04 00:08:00;;;;;;;0.40;0.40;;;19.50;99.90;;;;;;5058134;28;20048;-59
2022/02/04 00:21:28;;;;;;;0.60;0.60;;;19.40;99.90;;;;;;5073573;28;20054;-63
2022/02/04 00:23:58;;;;;;;0.30;0.30;;;19.50;99.90;;;;;;5071869;28;20045;-61
2022/02/04 00:26:31;;;;;;;0.40;0.40;;;19.40;99.90;;;;;;5055813;28;20045;-62
2022/02/04 00:29:24;;;;;;;0.38;0.38;;;19.40;99.90;;;;;;5058557;28;20036;-62
2022/02/04 00:31:54;;;;;;;0.40;0.40;;;19.50;99.90;;;;;;5050181;28;20052;-59
2022/02/04 00:34:23;;;;;;;0.40;0.40;;;19.40;99.90;;;;;;5067291;28;20061;-61
2022/02/04 00:37:07;;;;;;;0.30;0.30;;;19.40;99.90;;;;;;5063491;28;20055;-62
2022/02/04 00:39:43;;;;;;;0.55;0.55;;;19.40;99.90;;;;;;5053307;28;20054;-61
2022/02/04 00:42:11;;;;;;;0.32;0.32;;;19.40;99.90;;;;;;5057571;28;20044;-61
2022/02/04 00:44:41;;;;;;;0.43;0.40;;;19.30;99.90;;;;;;5060968;28;20052;-62
2022/02/04 00:47:32;;;;;;;0.30;0.30;;;19.30;99.90;;;;;;5063500;28;20049;-61
2022/02/04 00:50:24;;;;;;;0.30;0.30;;;19.30;99.90;;;;;;5054390;28;20489;-62
2022/02/04 00:53:06;;;;;;;0.40;0.40;;;19.30;99.90;;;;;;5049997;28;20060;-63
2022/02/04 00:55:43;;;;;;;0.30;0.30;;;19.30;99.90;;;;;;5051010;28;20511;-63
2022/02/04 01:13:12;;;;;;;0.30;0.30;;;19.30;99.90;;;;;;5049620;28;20040;-63
2022/02/04 01:28:26;;;;;;;0.50;0.50;;;19.20;99.90;;;;;;5077256;28;20052;-62
2022/02/04 01:30:55;;;;;;;0.88;0.70;;;19.10;99.90;;;;;;5059813;28;20126;-63
2022/02/04 01:33:23;;;;;;;0.43;0.43;;;19.20;99.90;;;;;;5070206;28;20049;-62
2022/02/04 01:35:51;;;;;;;0.30;0.30;;;19.20;99.90;;;;;;5053231;28;20045;-61
2022/02/04 01:38:18;;;;;;;0.30;0.30;;;19.10;99.90;;;;;;5049102;28;20053;-63
2022/02/04 01:40:46;;;;;;;0.85;0.85;;;19.10;99.90;;;;;;5051533;28;20408;-61
2022/02/04 01:43:17;;;;;;;0.88;0.60;;;19.10;99.90;;;;;;5046684;28;20045;-62
2022/02/04 01:45:44;;;;;;;1.17;0.82;;;19.00;99.90;;;;;;5051801;28;20044;-63
2022/02/04 01:48:11;;;;;;;0.30;0.30;;;19.00;99.90;;;;;;5049590;28;20052;-63
2022/02/04 01:50:38;;;;;;;0.30;0.30;;;19.00;99.90;;;;;;5062507;28;20036;-62
2022/02/04 01:53:06;;;;;;;0.30;0.30;;;19.00;99.90;;;;;;5049067;28;20359;-61
2022/02/04 01:55:33;;;;;;;0.38;0.38;;;19.00;99.90;;;;;;5054995;28;20045;-61
2022/02/04 01:58:00;;;;;;;0.30;0.30;;;19.00;99.90;;;;;;5066395;28;20423;-60
2022/02/04 02:00:28;;;;;;;1.45;0.95;;;19.00;99.90;;;;;;5055404;28;20059;-60
2022/02/04 02:02:55;;;;;;;0.30;0.30;;;18.90;99.90;;;;;;5051092;28;20060;-63
2022/02/04 02:05:23;;;;;;;0.30;0.30;;;18.90;99.90;;;;;;5059011;28;20053;-62
2022/02/04 02:07:50;;;;;;;0.30;0.30;;;18.90;99.90;;;;;;5048556;28;20052;-62
2022/02/04 02:10:19;;;;;;;0.30;0.30;;;18.90;99.90;;;;;;5062638;28;20043;-62
2022/02/04 02:15:40;;;;;;;0.30;0.30;;;18.90;99.90;;;;;;5062791;28;20067;-63
2022/02/04 02:51:12;;;;;;;0.40;0.40;;;18.90;99.90;;;;;;5067736;28;20054;-59
2022/02/04 02:59:00;;;;;;;0.40;0.40;;;18.90;99.90;;;;;;5047723;28;20060;-61
2022/02/04 03:01:28;;;;;;;0.30;0.30;;;19.00;99.90;;;;;;5049401;28;20057;-63
2022/02/04 03:03:58;;;;;;;0.30;0.30;;;19.00;99.90;;;;;;5066312;28;20052;-61
2022/02/04 03:06:25;;;;;;;0.30;0.30;;;19.00;99.90;;;;;;5061582;28;20416;-61
2022/02/04 03:08:53;;;;;;;0.40;0.40;;;18.90;99.90;;;;;;5063406;28;20045;-62
2022/02/04 03:11:20;;;;;;;0.30;0.30;;;18.90;99.90;;;;;;5055576;28;20080;-60
2022/02/04 03:13:47;;;;;;;0.50;0.50;;;19.00;99.90;;;;;;5049544;28;20432;-62
2022/02/04 03:16:18;;;;;;;0.30;0.30;;;18.90;99.90;;;;;;5049258;28;20056;-61
2022/02/04 03:18:49;;;;;;;0.30;0.30;;;18.90;99.90;;;;;;5060872;28;20361;-62
2022/02/04 03:21:26;;;;;;;0.40;0.40;;;18.90;99.90;;;;;;5064187;28;20049;-62
2022/02/04 03:24:00;;;;;;;0.30;0.30;;;18.90;99.90;;;;;;5062830;28;20048;-60
2022/02/04 03:26:35;;;;;;;0.65;0.38;;;18.80;99.90;;;;;;5066588;28;20048;-61
2022/02/04 03:29:03;;;;;;;0.40;0.40;;;18.80;99.90;;;;;;5053904;28;20043;-62
2022/02/04 03:31:37;;;;;;;0.30;0.30;;;18.80;99.90;;;;;;5063552;28;20064;-61
2022/02/04 03:34:05;;;;;;;0.40;0.40;;;18.80;99.90;;;;;;5052669;28;20060;-62
2022/02/04 03:36:32;;;;;;;0.40;0.40;;;18.80;99.90;;;;;;5062479;28;20088;-62
2022/02/04 03:39:00;;;;;;;2.15;1.20;;;18.70;99.90;;;;;;5068342;28;20045;-60
2022/02/04 03:41:27;;;;;;;0.32;0.32;;;18.70;99.90;;;;;;5056536;28;20346;-62
2022/02/04 03:43:54;;;;;;;0.30;0.30;;;18.80;99.90;;;;;;5061745;28;20048;-60
2022/02/04 03:46:22;;;;;;;0.40;0.40;;;18.80;99.90;;;;;;5053276;28;20067;-60
2022/02/04 03:48:49;;;;;;;0.30;0.30;;;18.70;99.90;;;;;;5069972;28;20060;-60
2022/02/04 03:51:16;;;;;;;0.32;0.32;;;18.70;99.90;;;;;;5051926;28;20056;-61
2022/02/04 03:53:44;;;;;;;0.50;0.50;;;18.70;99.90;;;;;;5061677;28;20053;-61
2022/02/04 03:56:11;;;;;;;0.30;0.30;;;18.70;99.90;;;;;;5050961;28;20512;-62
2022/02/04 03:58:39;;;;;;;0.30;0.30;;;18.70;99.90;;;;;;5058679;28;20412;-62
2022/02/04 04:01:06;;;;;;;0.63;0.60;;;18.70;99.90;;;;;;5066672;28;20060;-63
2022/02/04 04:03:34;;;;;;;0.30;0.30;;;18.70;99.90;;;;;;5065358;28;20147;-62
2022/02/04 04:06:01;;;;;;;0.63;0.63;;;18.70;99.90;;;;;;5065396;28;20044;-62
2022/02/04 04:08:29;;;;;;;0.88;0.65;;;18.70;99.90;;;;;;5056644;28;20048;-60
2022/02/04 04:10:56;;;;;;;0.45;0.45;;;18.70;99.90;;;;;;5075203;28;20055;-61
2022/02/04 04:13:25;;;;;;;0.30;0.30;;;18.70;99.90;;;;;;5070160;28;20049;-60
2022/02/04 04:15:52;;;;;;;0.40;0.40;;;18.70;99.90;;;;;;5055729;28;20048;-61
2022/02/04 04:18:20;;;;;;;0.30;0.30;;;18.70;99.90;;;;;;5068660;28;20052;-59
2022/02/04 04:20:48;;;;;;;0.40;0.40;;;18.70;99.90;;;;;;5059649;28;20416;-64
2022/02/04 04:23:15;;;;;;;1.20;1.10;;;18.70;99.90;;;;;;5054168;28;20056;-61
2022/02/04 04:25:43;;;;;;;0.30;0.30;;;18.70;99.90;;;;;;5068696;28;20503;-61
2022/02/04 04:28:10;;;;;;;0.40;0.40;;;18.70;99.90;;;;;;5062057;28;20436;-63
2022/02/04 04:30:38;;;;;;;2.33;0.63;;;18.70;99.90;;;;;;5056383;28;20696;-62
2022/02/04 04:33:05;;;;;;;0.40;0.40;;;18.70;99.90;;;;;;5049683;28;20504;-62
2022/02/04 04:35:33;;;;;;;0.20;0.20;;;18.70;99.90;;;;;;5063196;28;20499;-60
2022/02/04 04:38:09;;;;;;;0.30;0.30;;;18.60;99.90;;;;;;5068374;28;20055;-60
2022/02/04 04:43:25;;;;;;;0.40;0.40;;;18.70;99.90;;;;;;5051525;28;20044;-61
2022/02/04 05:29:53;;;;;;;0.32;0.32;;;20.50;99.90;;;;;;5064413;28;20049;-62
2022/02/04 05:32:20;;;;;;;0.30;0.30;;;20.70;99.90;;;;;;5057287;28;20049;-61
2022/02/04 05:34:50;;;;;;;0.45;0.45;;;20.80;99.90;;;;;;5068445;28;20143;-63
2022/02/04 05:37:20;;;;;;;0.30;0.30;;;20.90;99.90;;;;;;5080167;28;20059;-60
2022/02/04 05:39:57;;;;;;;0.30;0.30;;;21.00;99.90;;;;;;5064697;28;20040;-62
2022/02/04 05:42:31;;;;;;;0.55;0.55;;;21.20;99.90;;;;;;5059552;28;20423;-63
2022/02/04 05:45:06;;;;;;;0.30;0.30;;;21.30;99.90;;;;;;5062721;28;20409;-63
2022/02/04 05:47:35;;;;;;;0.30;0.30;;;21.50;99.90;;;;;;5066321;28;20450;-61
2022/02/04 05:50:21;;;;;;;0.35;0.35;;;21.60;99.90;;;;;;5056966;28;20041;-60
2022/02/04 05:58:50;;;;;;;0.55;0.55;;;21.90;99.90;;;;;;5067299;28;20060;-62
2022/02/04 06:00:50;;;;;;;0.30;0.30;;;21.90;99.90;;;;;;5052601;28;20520;-61
2022/02/04 06:12:15;;;;;;;0.40;0.40;;;21.70;99.90;;;;;;5022639;28;20060;-60
2022/02/04 06:22:50;;;;;;;0.30;0.30;;;21.70;99.90;;;;;;5058337;28;20056;-60
2022/02/04 06:25:18;;;;;;;0.50;0.50;;;21.70;99.90;;;;;;5060820;28;20052;-62
2022/02/04 06:27:46;;;;;;;0.32;0.32;;;21.70;99.90;;;;;;5060510;28;20045;-62
2022/02/04 06:30:14;;;;;;;0.30;0.30;;;21.60;99.90;;;;;;5060815;28;20416;-62
2022/02/04 06:32:41;;;;;;;0.35;0.35;;;21.60;99.90;;;;;;5066961;28;20047;-62
2022/02/04 06:35:10;;;;;;;0.40;0.40;;;21.50;99.90;;;;;;5063573;28;20495;-62
2022/02/04 06:37:37;;;;;;;0.30;0.30;;;21.50;99.90;;;;;;5055551;28;20056;-62
2022/02/04 06:40:05;;;;;;;0.40;0.40;;;21.50;99.90;;;;;;5058516;28;20044;-63
2022/02/04 06:42:33;;;;;;;0.30;0.30;;;21.50;99.90;;;;;;5052610;28;20471;-63
2022/02/04 06:45:02;;;;;;;0.30;0.30;;;21.40;99.90;;;;;;5064739;28;20044;-62
2022/02/04 06:47:30;;;;;;;0.30;0.30;;;21.40;99.90;;;;;;5064182;28;20049;-62
2022/02/04 06:49:57;;;;;;;0.30;0.30;;;21.30;99.90;;;;;;5051146;28;20147;-61
2022/02/04 06:52:24;;;;;;;0.40;0.40;;;21.30;99.90;;;;;;5068541;28;20508;-61
2022/02/04 06:54:52;;;;;;;0.40;0.40;;;21.30;99.90;;;;;;5069955;28;20048;-63
2022/02/04 06:57:21;;;;;;;0.40;0.40;;;21.30;99.90;;;;;;5068706;28;20051;-62
2022/02/04 06:59:50;;;;;;;0.45;0.45;;;21.20;99.90;;;;;;5063193;28;20515;-63
2022/02/04 07:02:20;;;;;;;0.30;0.30;;;21.20;99.90;;;;;;5069905;28;20055;-63
2022/02/04 07:04:47;;;;;;;0.60;0.60;;;21.20;99.90;;;;;;5065157;28;20051;-62
2022/02/04 07:07:16;;;;;;;0.55;0.55;;;21.00;99.90;;;;;;5063009;28;20049;-60
2022/02/04 07:09:56;;;;;;;1.45;1.35;;;19.70;98.20;;;;;;5060272;28;20637;-61
2022/02/04 07:19:56;;;;;;;1.65;1.52;;;17.90;99.90;;;;;;5071459;28;20052;-61
2022/02/04 07:22:26;;;;;;;0.70;0.70;;;18.70;99.90;;;;;;5072661;28;20056;-59
2022/02/04 07:24:56;;;;;;;0.57;0.57;;;19.50;99.90;;;;;;5067657;28;20040;-62
2022/02/04 07:27:24;;;;;;;0.38;0.38;;;20.10;99.90;;;;;;5066812;28;20408;-61
2022/02/04 07:29:53;;;;;;;0.70;0.70;;;20.50;99.90;;;;;;5068662;28;20041;-60
2022/02/04 07:35:20;;;;;;;0.90;0.68;;;20.90;99.90;;;;;;5066207;28;20386;-59
2022/02/04 07:43:19;;;;;;;0.32;0.32;;;21.20;99.90;;;;;;5057867;28;20063;-61
2022/02/04 07:45:46;;;;;;;0.30;0.30;;;21.30;99.90;;;;;;5064413;28;20044;-59
2022/02/04 07:48:15;;;;;;;0.82;0.47;;;21.40;99.90;;;;;;5063227;28;20049;-58
2022/02/04 07:50:47;;;;;;;1.10;0.90;;;21.50;99.90;;;;;;5068032;28;20040;-57
2022/02/04 07:53:16;;;;;;;0.68;0.65;;;21.50;99.90;;;;;;5062776;28;20060;-60
2022/02/04 07:55:43;;;;;;;0.60;0.60;;;21.70;99.90;;;;;;5062759;28;20063;-56
2022/02/04 07:58:12;;;;;;;;;;;21.70;99.90;;;;;;5064989;28;20048;-59
2022/02/04 08:00:39;;;;;;;0.70;0.70;;;21.80;99.90;;;;;;5058651;28;19920;-63
2022/02/04 08:03:32;;;;;;;0.40;0.40;;;21.90;99.90;;;;;;5072104;28;20106;-58
2022/02/04 08:06:10;;;;;;;0.30;0.30;;;22.00;99.90;;;;;;5068737;28;20043;-60
2022/02/04 08:14:21;;;;;;;1.17;0.85;;;21.90;99.90;;;;;;5057702;28;20052;-58
2022/02/04 08:22:12;;;;;;;6.97;4.85;;;21.70;99.90;;;;;;5057590;28;20537;-60
2022/02/04 08:27:46;;;;;;;11.02;4.80;;;21.60;99.90;;;;;;5059262;28;20040;-58
2022/02/04 08:49:46;;;;;;;28.27;11.45;;;21.40;99.90;;;;;;5067381;28;20045;-67
2022/02/04 08:54:49;;;;;;;14.55;8.02;;;21.30;99.90;;;;;;5061728;28;20064;-67
2022/02/04 09:02:59;;;;;;;19.38;8.13;;;21.30;99.90;;;;;;5067876;28;20059;-65
2022/02/04 09:05:34;;;;;;;10.02;5.50;;;21.20;99.90;;;;;;5066812;28;20056;-63
2022/02/04 09:10:36;;;;;;;11.63;7.78;;;21.20;99.90;;;;;;5064068;28;20041;-66
2022/02/04 09:23:34;;;;;;;12.15;4.80;;;21.00;99.90;;;;;;5048590;28;20570;-67
2022/02/04 09:26:06;;;;;;;8.77;5.28;;;21.10;99.90;;;;;;5069549;28;20063;-66
2022/02/04 09:28:35;;;;;;;13.10;6.75;;;21.10;99.90;;;;;;5066149;28;20044;-67
2022/02/04 09:31:03;;;;;;;10.05;6.07;;;21.10;99.90;;;;;;5047956;28;20045;-62
2022/02/04 09:33:31;;;;;;;4.97;3.15;;;21.10;99.90;;;;;;5064746;28;20055;-68
2022/02/04 09:35:58;;;;;;;9.32;5.53;;;21.20;99.90;;;;;;5075484;28;20244;-67
2022/02/04 09:38:26;;;;;;;9.50;5.82;;;21.40;99.90;;;;;;5066287;28;20052;-65
2022/02/04 09:40:54;;;;;;;;;;;21.40;99.90;;;;;;5071840;28;20041;-64
2022/02/04 09:43:21;;;;;;;4.55;3.08;;;21.50;99.90;;;;;;5065382;28;19924;-64
2022/02/04 09:45:49;;;;;;;8.93;4.97;;;21.50;99.90;;;;;;5052934;28;20040;-67
2022/02/04 09:48:16;;;;;;;9.07;4.57;;;21.50;99.90;;;;;;5074496;28;20078;-66
2022/02/04 09:50:48;;;;;;;8.13;4.75;;;21.60;99.90;;;;;;5052690;28;20040;-66
2022/02/04 10:07:55;;;;;;;7.90;5.13;;;21.80;99.90;;;;;;5045817;28;20048;-63
2022/02/04 10:18:29;;;;;;;9.50;3.28;;;21.80;99.90;;;;;;5044395;28;20057;-60
2022/02/04 10:21:07;;;;;;;11.43;4.70;;;21.70;99.90;;;;;;5043724;28;20055;-61
2022/02/04 10:23:44;;;;;;;10.68;3.28;;;21.70;99.90;;;;;;5048884;28;20051;-61
2022/02/04 10:26:12;;;;;;;4.65;3.10;;;21.70;99.90;;;;;;5041484;28;20048;-61
2022/02/04 10:28:41;;;;;;;2.83;2.35;;;21.70;99.90;;;;;;5055449;28;20060;-62
2022/02/04 10:31:15;;;;;;;5.80;3.13;;;21.70;99.90;;;;;;5051956;28;20418;-62
2022/02/04 10:33:59;;;;;;;15.23;5.38;;;21.60;99.90;;;;;;5056964;28;20040;-61
2022/02/04 10:37:21;;;;;;;8.20;3.75;;;21.60;99.90;;;;;;5058241;28;20051;-62
2022/02/04 10:40:07;;;;;;;4.95;2.92;;;21.60;99.90;;;;;;5051277;28;20067;-63
2022/02/04 11:02:57;;;;;;;2.65;1.83;;;21.10;99.90;;;;;;5045704;28;20083;-59
2022/02/04 11:05:32;;;;;;;1.05;0.95;;;21.20;99.90;;;;;;5068464;28;20056;-56
2022/02/04 14:10:53;;;;;;;1.00;1.00;;;21.80;99.90;;;;;;4188380;28;20343;-58
2022/02/04 14:13:23;;;;;;;0.88;0.88;;;21.70;99.90;;;;;;5044141;28;20040;-59
2022/02/04 14:15:57;;;;;;;0.93;0.93;;;21.70;99.90;;;;;;5055945;28;20048;-61
2022/02/04 14:18:27;;;;;;;0.32;0.32;;;21.70;99.90;;;;;;5072451;28;20044;-61
2022/02/04 14:20:55;;;;;;;1.35;1.08;;;21.70;99.90;;;;;;5062096;28;20040;-64
2022/02/04 14:23:23;;;;;;;0.80;0.80;;;21.70;99.90;;;;;;5069738;28;20044;-62
2022/02/04 14:26:01;;;;;;;0.63;0.63;;;21.70;99.90;;;;;;5064486;28;20037;-60
2022/02/04 14:31:28;;;;;;;2.85;1.95;;;21.70;99.90;;;;;;5077448;28;20037;-61
2022/02/04 14:53:42;;;;;;;2.47;2.03;;;21.50;99.90;;;;;;5067859;28;20049;-60
2022/02/04 15:01:57;;;;;;;2.05;0.95;;;21.30;99.90;;;;;;5066055;28;20501;-58
2022/02/04 15:04:49;;;;;;;0.98;0.60;;;21.30;99.90;;;;;;5074719;28;20412;-60
2022/02/04 15:07:14;;;;;;;0.75;0.65;;;21.20;99.90;;;;;;5062515;28;20532;-56
2022/02/04 15:09:53;;;;;;;0.30;0.30;;;21.20;99.90;;;;;;5045971;28;20051;-61
2022/02/04 15:12:22;;;;;;;2.08;1.25;;;21.20;99.90;;;;;;5061786;28;20075;-56
2022/02/04 15:14:49;;;;;;;0.85;0.82;;;21.30;99.90;;;;;;5041780;28;20138;-60
2022/02/04 15:17:17;;;;;;;1.70;0.90;;;21.30;99.90;;;;;;5076441;28;20048;-61
2022/02/04 15:19:45;;;;;;;1.85;1.08;;;21.40;99.90;;;;;;5034553;28;20380;-60
2022/02/04 15:22:14;;;;;;;0.30;0.30;;;21.50;99.90;;;;;;5038931;28;20044;-59
2022/02/04 15:24:42;;;;;;;9.05;2.95;;;21.60;99.90;;;;;;5041470;28;20042;-61
2022/02/04 15:27:10;;;;;;;2.80;2.35;;;21.70;99.90;;;;;;5032585;28;20346;-59
2022/02/04 15:29:43;;;;;;;4.93;3.05;;;21.70;99.90;;;;;;5054480;28;20588;-63
2022/02/04 15:32:11;;;;;;;2.78;1.80;;;21.80;99.90;;;;;;5038146;28;20061;-65
2022/02/04 15:34:38;;;;;;;;;;;21.70;99.90;;;;;;5055050;28;20051;-57
2022/02/04 15:37:07;;;;;;;2.40;2.00;;;21.80;99.90;;;;;;5051841;28;19928;-60
2022/02/04 15:39:39;;;;;;;1.80;1.65;;;21.70;99.90;;;;;;5059419;28;20044;-58
2022/02/04 15:42:11;;;;;;;5.28;2.22;;;21.70;99.90;;;;;;5064019;28;20040;-61
2022/02/04 15:44:43;;;;;;;1.75;1.10;;;21.60;99.90;;;;;;5053387;28;20051;-60
2022/02/04 15:47:24;;;;;;;0.40;0.40;;;20.40;99.90;;;;;;5074254;28;20059;-60
2022/02/04 15:52:44;;;;;;;1.20;1.10;;;20.10;99.90;;;;;;5044333;28;20443;-66
2022/02/04 15:55:30;;;;;;;0.65;0.65;;;20.40;99.90;;;;;;5062518;28;20075;-64
2022/02/04 15:58:18;;;;;;;2.75;1.13;;;20.80;99.90;;;;;;5045328;28;20435;-63
2022/02/04 16:04:39;;;;;;;0.40;0.40;;;21.30;99.90;;;;;;5071304;28;20299;-63
2022/02/04 16:06:29;;;;;;;0.40;0.40;;;21.40;99.90;;;;;;5050888;28;20060;-62
2022/02/04 16:08:57;;;;;;;;;;;21.60;99.90;;;;;;5049658;28;20048;-61
2022/02/04 16:11:36;;;;;;;2.42;1.35;;;21.70;99.90;;;;;;5064376;28;19939;-65
2022/02/04 16:14:26;;;;;;;1.45;0.98;;;21.80;99.90;;;;;;5063206;28;20056;-61
2022/02/04 16:17:09;;;;;;;4.65;2.72;;;21.80;99.90;;;;;;5065047;28;20052;-64
2022/02/04 16:19:47;;;;;;;0.68;0.68;;;21.80;99.90;;;;;;5066185;28;20051;-61
2022/02/04 16:22:55;;;;;;;1.40;0.98;;;21.90;99.90;;;;;;5060066;28;20504;-62
2022/02/04 16:30:06;;;;;;;2.72;1.08;;;21.80;99.90;;;;;;5066554;28;20055;-63
2022/02/04 16:32:34;;;;;;;0.30;0.30;;;21.80;99.90;;;;;;5063264;28;20047;-61
2022/02/04 16:35:04;;;;;;;0.75;0.63;;;21.80;99.90;;;;;;5067019;28;20111;-60
2022/02/04 16:37:37;;;;;;;0.35;0.35;;;21.80;99.90;;;;;;5062538;28;20044;-64
2022/02/04 16:40:13;;;;;;;1.65;1.02;;;21.70;99.90;;;;;;5061233;28;20048;-57
2022/02/04 16:42:41;;;;;;;1.48;0.88;;;21.70;99.90;;;;;;5062355;28;20047;-64
2022/02/04 16:45:09;;;;;;;1.52;1.15;;;21.70;99.90;;;;;;5062856;28;20040;-61
2022/02/04 16:47:36;;;;;;;1.90;1.13;;;21.70;99.90;;;;;;5066639;28;20082;-62
2022/02/04 16:50:06;;;;;;;11.80;1.70;;;21.70;99.90;;;;;;5042157;28;20072;-60
2022/02/04 16:52:34;;;;;;;0.30;0.30;;;21.70;99.90;;;;;;5042916;28;20048;-59
2022/02/04 16:55:02;;;;;;;2.20;1.17;;;21.60;99.90;;;;;;5064091;28;20040;-62
2022/02/04 16:57:30;;;;;;;0.70;0.70;;;21.70;99.90;;;;;;5067863;28;20044;-60
2022/02/04 17:00:04;;;;;;;6.65;2.20;;;21.70;99.90;;;;;;5067882;28;20070;-64
2022/02/04 17:02:33;;;;;;;1.65;1.50;;;21.70;99.90;;;;;;5066724;28;20048;-59
2022/02/04 17:05:01;;;;;;;1.20;0.75;;;21.70;99.90;;;;;;5070057;28;20057;-61
2022/02/04 17:07:29;;;;;;;0.65;0.65;;;21.60;99.90;;;;;;5060120;28;20071;-61
2022/02/04 17:09:56;;;;;;;;;;;21.60;99.90;;;;;;5063344;28;20055;-63
2022/02/04 17:12:29;;;;;;;0.40;0.40;;;21.60;99.90;;;;;;5061984;28;20031;-63
2022/02/04 17:14:57;;;;;;;0.28;0.28;;;21.50;99.90;;;;;;5067484;28;20389;-62
2022/02/04 17:17:24;;;;;;;3.10;1.45;;;21.60;99.90;;;;;;5057584;28;20044;-61
2022/02/04 17:20:12;;;;;;;0.28;0.28;;;21.60;99.90;;;;;;5064911;28;20142;-60
2022/02/04 17:22:40;;;;;;;1.08;0.98;;;21.60;99.90;;;;;;5061492;28;20745;-62
2022/02/04 17:25:10;;;;;;;;;;;21.60;99.90;;;;;;5057886;28;20040;-59
2022/02/04 17:27:39;;;;;;;0.35;0.35;;;21.60;99.90;;;;;;5065573;28;19925;-64
2022/02/04 17:30:10;;;;;;;0.60;0.60;;;21.60;99.90;;;;;;5059248;28;20881;-60
2022/02/04 17:32:42;;;;;;;1.15;0.75;;;21.50;99.90;;;;;;5068097;28;20419;-62
2022/02/04 17:35:12;;;;;;;0.30;0.30;;;21.50;99.90;;;;;;5068253;28;20056;-62
2022/02/04 17:37:40;;;;;;;0.47;0.47;;;21.50;99.90;;;;;;5061773;28;20709;-60
2022/02/04 17:40:11;;;;;;;0.30;0.30;;;21.60;99.90;;;;;;5063903;28;20048;-60
2022/02/04 17:42:40;;;;;;;0.40;0.40;;;21.60;99.90;;;;;;5056314;28;20052;-63
2022/02/04 17:45:10;;;;;;;1.23;0.88;;;21.60;99.90;;;;;;5064449;28;20044;-62
2022/02/04 17:47:38;;;;;;;0.68;0.68;;;21.60;99.90;;;;;;5040816;28;20055;-63
2022/02/04 17:50:13;;;;;;;0.85;0.77;;;21.50;99.90;;;;;;5063183;28;20048;-60
2022/02/04 17:52:52;;;;;;;0.40;0.40;;;21.50;99.90;;;;;;5062397;28;20043;-60
2022/02/04 17:55:27;;;;;;;0.30;0.30;;;21.50;99.90;;;;;;5051664;28;20044;-60
2022/02/04 17:58:10;;;;;;;1.58;1.25;;;21.50;99.90;;;;;;5072526;28;21388;-60
2022/02/04 18:01:13;;;;;;;0.40;0.40;;;21.50;99.90;;;;;;5066078;28;20060;-61
2022/02/04 18:06:53;;;;;;;0.47;0.47;;;21.40;99.90;;;;;;5073883;28;20044;-63
2022/02/04 18:09:14;;;;;;;3.13;1.10;;;21.40;99.90;;;;;;5067125;28;20384;-63
2022/02/04 18:11:41;;;;;;;;;;;21.40;99.90;;;;;;5063007;28;20390;-61
2022/02/04 18:14:09;;;;;;;0.30;0.30;;;21.40;99.90;;;;;;5064433;28;20415;-61
2022/02/04 18:16:36;;;;;;;2.63;1.08;;;21.30;99.90;;;;;;5046043;28;20052;-61
2022/02/04 18:19:04;;;;;;;0.55;0.55;;;21.30;99.90;;;;;;5066312;28;20589;-62
2022/02/04 18:21:33;;;;;;;2.65;2.05;;;21.20;99.90;;;;;;5065041;28;20040;-61
2022/02/04 18:24:00;;;;;;;0.60;0.60;;;21.20;99.90;;;;;;5060506;28;20411;-59
2022/02/04 18:26:28;;;;;;;0.30;0.30;;;21.20;99.90;;;;;;5063404;28;20044;-61
2022/02/04 18:28:55;;;;;;;0.40;0.40;;;21.20;99.90;;;;;;5065642;28;20524;-62
2022/02/04 18:31:23;;;;;;;0.40;0.40;;;21.20;99.90;;;;;;5063442;28;20048;-60
2022/02/04 18:33:50;;;;;;;0.75;0.75;;;21.20;99.90;;;;;;5049470;28;20563;-61
2022/02/04 18:36:17;;;;;;;0.30;0.30;;;21.10;99.90;;;;;;5058920;28;20044;-61
2022/02/04 18:38:53;;;;;;;0.52;0.52;;;21.10;99.90;;;;;;5065269;28;20512;-61
2022/02/04 18:44:11;;;;;;;0.30;0.30;;;21.10;99.90;;;;;;5062759;28;20067;-63
2022/02/04 18:47:07;;;;;;;0.82;0.82;;;21.10;99.90;;;;;;5060534;28;20139;-62
2022/02/04 18:49:48;;;;;;;0.30;0.30;;;21.10;99.90;;;;;;5062304;28;20066;-61
2022/02/04 18:57:32;;;;;;;1.15;0.88;;;21.00;99.90;;;;;;5057228;28;20056;-62
2022/02/04 19:00:09;;;;;;;0.30;0.30;;;21.00;99.90;;;;;;5056120;28;20064;-61
2022/02/04 19:02:38;;;;;;;0.65;0.65;;;21.00;99.90;;;;;;5061340;28;20143;-61
2022/02/04 19:05:16;;;;;;;0.55;0.55;;;21.00;99.90;;;;;;5063470;28;20056;-61
2022/02/04 19:07:50;;;;;;;1.30;0.68;;;21.00;99.90;;;;;;5065894;28;20428;-58
2022/02/04 19:10:18;;;;;;;0.75;0.75;;;21.00;99.90;;;;;;5062339;28;20155;-62
2022/02/04 19:12:51;;;;;;;0.30;0.30;;;21.00;99.90;;;;;;5066879;28;21148;-61
2022/02/04 19:17:54;;;;;;;1.27;0.55;;;21.00;99.90;;;;;;5066739;28;20037;-61
2022/02/04 19:20:34;;;;;;;0.52;0.52;;;21.00;99.90;;;;;;5061793;28;20629;-63
2022/02/04 19:23:06;;;;;;;0.60;0.60;;;21.00;99.90;;;;;;5060967;28;20359;-60
2022/02/04 19:25:37;;;;;;;0.35;0.35;;;21.00;99.90;;;;;;5066728;28;20716;-63
2022/02/04 19:28:07;;;;;;;0.40;0.40;;;21.00;99.90;;;;;;5063191;28;20056;-60
2022/02/04 19:30:44;;;;;;;2.20;0.77;;;20.90;99.90;;;;;;5063199;28;20470;-59
2022/02/04 19:33:17;;;;;;;0.88;0.88;;;20.90;99.90;;;;;;5057073;28;20412;-60
2022/02/04 19:35:46;;;;;;;0.32;0.32;;;20.90;99.90;;;;;;5063521;28;20063;-59
2022/02/04 19:38:14;;;;;;;0.40;0.40;;;20.90;99.90;;;;;;5040325;28;20522;-60
2022/02/04 19:40:44;;;;;;;0.40;0.40;;;20.80;99.90;;;;;;5055468;28;20059;-62
2022/02/04 19:43:15;;;;;;;0.40;0.40;;;20.80;99.90;;;;;;5058975;28;20360;-61
2022/02/04 19:45:51;;;;;;;0.40;0.40;;;20.90;99.90;;;;;;5063036;28;20040;-60
2022/02/04 19:48:24;;;;;;;0.30;0.30;;;20.90;99.90;;;;;;5057725;28;20033;-60
2022/02/04 19:51:22;;;;;;;0.65;0.65;;;20.80;99.90;;;;;;5062229;28;20055;-63
2022/02/04 20:12:40;;;;;;;0.63;0.63;;;20.80;99.90;;;;;;5068365;28;20051;-59
2022/02/04 20:16:51;;;;;;;0.40;0.40;;;20.70;99.90;;;;;;5066147;28;20046;-59
2022/02/04 20:26:55;;;;;;;0.35;0.35;;;20.80;99.90;;;;;;5064728;28;20115;-63
2022/02/04 20:29:23;;;;;;;0.40;0.40;;;20.70;99.90;;;;;;5062741;28;20048;-60
2022/02/04 20:31:50;;;;;;;0.40;0.40;;;20.70;99.90;;;;;;5070131;28;20142;-62
2022/02/04 20:34:19;;;;;;;1.55;1.15;;;20.70;99.90;;;;;;5043032;28;20540;-60
2022/02/04 20:36:46;;;;;;;0.30;0.30;;;20.70;99.90;;;;;;5066777;28;20067;-61
2022/02/04 20:39:19;;;;;;;0.30;0.30;;;20.70;99.90;;;;;;5069832;28;20048;-63
2022/02/04 20:41:47;;;;;;;0.30;0.30;;;20.70;99.90;;;;;;5061888;28;20515;-61
2022/02/04 20:44:14;;;;;;;0.30;0.30;;;20.70;99.90;;;;;;5069914;28;20051;-59
2022/02/04 20:46:42;;;;;;;0.65;0.65;;;20.60;99.90;;;;;;5063600;28;20048;-63
2022/02/04 20:49:10;;;;;;;0.30;0.30;;;20.60;99.90;;;;;;5067296;28;20512;-60
2022/02/04 20:51:37;;;;;;;0.93;0.90;;;20.60;99.90;;;;;;5061484;28;20071;-59
2022/02/04 20:54:07;;;;;;;1.45;1.10;;;20.60;99.90;;;;;;5063565;28;20044;-60
2022/02/04 20:56:34;;;;;;;6.47;1.85;;;20.60;99.90;;;;;;5064622;28;20640;-58
2022/02/04 20:59:02;;;;;;;0.30;0.30;;;20.60;99.90;;;;;;5067286;28;20055;-61
2022/02/04 21:01:30;;;;;;;;;;;20.50;99.90;;;;;;5065896;28;20048;-61
2022/02/04 21:03:59;;;;;;;0.30;0.30;;;20.50;99.90;;;;;;5071260;28;19928;-60
2022/02/04 21:16:56;;;;;;;2.17;1.27;;;20.50;99.90;;;;;;5071398;28;20044;-60
2022/02/04 21:19:24;;;;;;;0.30;0.30;;;20.50;99.90;;;;;;5072233;28;20056;-61
2022/02/04 21:21:51;;;;;;;0.47;0.47;;;20.50;99.90;;;;;;5067361;28;20048;-59
2022/02/04 21:24:23;;;;;;;0.30;0.30;;;20.50;99.90;;;;;;5077864;28;20045;-62
2022/02/04 21:26:53;;;;;;;2.10;1.20;;;20.50;99.90;;;;;;5066373;28;20055;-59
2022/02/04 21:29:21;;;;;;;1.52;0.80;;;20.50;99.90;;;;;;5069300;28;20067;-59
2022/02/04 21:31:51;;;;;;;0.47;0.47;;;20.50;99.90;;;;;;5068588;28;20051;-60
2022/02/04 21:37:06;;;;;;;0.50;0.50;;;20.50;99.90;;;;;;5067547;28;20048;-59
2022/02/04 21:39:37;;;;;;;0.47;0.47;;;20.50;99.90;;;;;;5068803;28;20052;-60
2022/02/04 21:42:07;;;;;;;0.30;0.30;;;20.50;99.90;;;;;;5063977;28;20040;-61
2022/02/04 21:44:35;;;;;;;0.63;0.60;;;20.40;99.90;;;;;;5065813;28;20044;-61
2022/02/04 21:47:11;;;;;;;1.25;1.05;;;20.40;99.90;;;;;;5068149;28;20052;-61
2022/02/04 21:49:44;;;;;;;0.50;0.50;;;20.30;99.90;;;;;;5053025;28;20472;-58
2022/02/04 21:52:18;;;;;;;0.50;0.50;;;20.30;99.90;;;;;;5063646;28;20302;-61
2022/02/04 21:54:45;;;;;;;0.30;0.30;;;20.20;99.90;;;;;;5068083;28;20059;-60
2022/02/04 21:57:13;;;;;;;0.50;0.50;;;20.20;99.90;;;;;;5067149;28;20052;-59
2022/02/04 21:59:40;;;;;;;0.30;0.30;;;20.30;99.90;;;;;;5068524;28;20052;-62
2022/02/04 22:02:08;;;;;;;0.30;0.30;;;20.20;99.90;;;;;;5060735;28;20055;-60
2022/02/04 22:04:35;;;;;;;0.32;0.32;;;20.30;99.90;;;;;;5071864;28;20048;-59
2022/02/04 22:07:03;;;;;;;0.30;0.30;;;20.30;99.90;;;;;;5066643;28;20392;-60
2022/02/04 22:09:59;;;;;;;0.30;0.30;;;20.30;99.90;;;;;;5070277;28;20064;-61
2022/02/04 22:17:58;;;;;;;0.95;0.60;;;20.20;99.90;;;;;;5066472;28;20048;-59